Time;durP1;ratioP1;P1;durP2;ratioP2;P2;SDS_P1;SDS_P2;PMS_P1;PMS_P2;Temp;Humidity;BMP_temperature;BMP_pressure;BME280_temperature;BME280_humidity;BME280_pressure;Samples;Min_cycle;Max_cycle;Signal;HPM_P1;HPM_P2
2022/07/03 00:02:22;;;;;;;23.17;5.60;;;15.80;99.90;;;;;;4966985;28;20070;-80
2022/07/03 00:04:50;;;;;;;26.60;4.45;;;15.90;99.90;;;;;;4963776;28;20057;-82
2022/07/03 00:07:17;;;;;;;22.08;5.10;;;15.80;99.90;;;;;;4960287;28;20070;-80
2022/07/03 00:09:45;;;;;;;21.15;4.18;;;15.90;99.90;;;;;;4964108;28;20019;-82
2022/07/03 00:12:13;;;;;;;21.60;3.88;;;16.00;99.90;;;;;;4966110;28;20023;-80
2022/07/03 00:14:43;;;;;;;21.45;4.78;;;16.00;99.90;;;;;;4974675;28;20023;-83
2022/07/03 00:17:10;;;;;;;34.67;6.28;;;16.00;99.90;;;;;;4974640;28;20027;-81
2022/07/03 00:19:37;;;;;;;25.88;5.35;;;16.00;99.90;;;;;;4975845;28;20035;-80
2022/07/03 00:22:08;;;;;;;21.33;4.95;;;16.10;99.90;;;;;;4974737;28;20058;-79
2022/07/03 00:24:53;;;;;;;21.73;4.78;;;16.10;99.90;;;;;;4964443;28;20423;-78
2022/07/03 00:27:24;;;;;;;34.92;7.20;;;16.10;99.90;;;;;;4966617;28;20484;-81
2022/07/03 00:29:53;;;;;;;35.75;6.57;;;16.20;99.90;;;;;;4971704;28;20078;-78
2022/07/03 00:32:24;;;;;;;35.03;6.68;;;16.20;99.90;;;;;;4970618;28;20057;-79
2022/07/03 00:34:54;;;;;;;33.47;6.13;;;16.20;99.90;;;;;;4954938;28;20463;-78
2022/07/03 00:37:22;;;;;;;29.80;5.60;;;16.20;99.90;;;;;;4973277;28;20027;-81
2022/07/03 00:39:49;;;;;;;35.17;6.95;;;16.30;99.90;;;;;;4975427;28;20051;-82
2022/07/03 00:42:18;;;;;;;22.23;4.30;;;16.20;99.90;;;;;;4968960;28;20031;-79
2022/07/03 00:44:55;;;;;;;16.80;3.13;;;16.20;99.90;;;;;;4970653;28;20086;-79
2022/07/03 00:47:24;;;;;;;17.88;4.68;;;16.20;99.90;;;;;;4970836;28;20030;-76
2022/07/03 00:49:54;;;;;;;28.25;5.65;;;16.30;99.90;;;;;;4972470;28;20547;-76
2022/07/03 00:52:23;;;;;;;25.52;4.28;;;16.30;99.90;;;;;;4969955;28;20034;-82
2022/07/03 00:54:55;;;;;;;22.70;3.83;;;16.30;99.90;;;;;;4973668;28;20323;-80
2022/07/03 00:57:24;;;;;;;22.15;5.13;;;16.40;99.90;;;;;;4971986;28;20050;-79
2022/07/03 00:59:53;;;;;;;19.73;4.57;;;16.50;99.90;;;;;;4973574;28;20037;-79
2022/07/03 01:02:29;;;;;;;28.13;6.15;;;16.50;99.90;;;;;;4969744;28;20109;-84
2022/07/03 01:05:11;;;;;;;23.73;5.95;;;16.50;99.90;;;;;;4969232;28;20106;-78
2022/07/03 01:07:41;;;;;;;;;;;16.50;99.90;;;;;;4968698;28;20157;-78
2022/07/03 01:10:49;;;;;;;27.83;4.80;;;16.60;99.90;;;;;;4969257;28;19910;-75
2022/07/03 01:13:46;;;;;;;19.88;4.97;;;16.70;99.90;;;;;;4968840;28;20019;-77
2022/07/03 01:16:37;;;;;;;24.25;4.40;;;16.70;99.90;;;;;;4986685;28;20119;-78
2022/07/03 01:19:20;;;;;;;21.88;4.90;;;16.80;99.90;;;;;;4972437;28;20388;-81
2022/07/03 01:22:16;;;;;;;23.77;5.28;;;16.90;99.90;;;;;;4971447;28;20042;-76
2022/07/03 01:25:07;;;;;;;22.50;4.28;;;16.90;99.90;;;;;;4972644;28;20031;-77
2022/07/03 01:27:57;;;;;;;20.33;4.32;;;16.90;99.90;;;;;;4974907;28;20117;-79
2022/07/03 01:30:26;;;;;;;22.05;5.30;;;17.00;99.90;;;;;;4974313;28;20039;-77
2022/07/03 01:33:05;;;;;;;23.13;5.10;;;17.10;99.90;;;;;;4973531;28;20070;-77
2022/07/03 01:35:35;;;;;;;21.92;4.68;;;17.10;99.90;;;;;;4973316;28;20053;-78
2022/07/03 01:38:06;;;;;;;30.63;5.00;;;17.10;99.90;;;;;;4975034;28;20031;-80
2022/07/03 01:40:38;;;;;;;20.92;3.90;;;17.00;99.90;;;;;;4977379;28;20026;-79
2022/07/03 01:43:08;;;;;;;;;;;17.00;99.90;;;;;;4978061;28;20023;-79
2022/07/03 01:45:47;;;;;;;24.00;3.88;;;16.90;99.90;;;;;;4977111;28;19906;-79
2022/07/03 01:48:15;;;;;;;15.23;4.28;;;16.80;99.90;;;;;;4979983;28;20023;-81
2022/07/03 01:50:46;;;;;;;17.98;3.97;;;16.80;99.90;;;;;;4980174;28;20019;-78
2022/07/03 01:53:15;;;;;;;18.35;3.67;;;16.80;99.90;;;;;;4978985;28;20027;-79
2022/07/03 01:55:46;;;;;;;19.10;4.07;;;16.80;99.90;;;;;;4975131;28;20050;-77
2022/07/03 01:58:16;;;;;;;22.15;4.50;;;16.80;99.90;;;;;;4973963;28;20082;-79
2022/07/03 02:01:05;;;;;;;29.38;15.93;;;16.80;99.90;;;;;;4973575;28;20069;-80
2022/07/03 02:03:35;;;;;;;20.15;9.02;;;16.80;99.90;;;;;;4973370;28;20595;-80
2022/07/03 02:06:24;;;;;;;28.45;8.75;;;16.90;99.90;;;;;;4972734;28;20031;-71
2022/07/03 02:09:04;;;;;;;20.25;5.43;;;16.90;99.90;;;;;;4969685;28;20027;-72
2022/07/03 02:11:39;;;;;;;69.13;61.22;;;17.00;99.90;;;;;;4972749;28;20070;-71
2022/07/03 02:14:28;;;;;;;31.45;18.77;;;17.00;99.90;;;;;;4968267;28;20369;-72
2022/07/03 02:17:09;;;;;;;22.95;9.80;;;17.00;99.90;;;;;;4969883;28;20391;-71
2022/07/03 02:19:54;;;;;;;32.35;17.42;;;17.00;99.90;;;;;;4972711;28;20042;-77
2022/07/03 02:22:44;;;;;;;32.58;12.27;;;17.10;99.90;;;;;;4973272;28;20031;-74
2022/07/03 02:25:23;;;;;;;31.17;10.43;;;17.10;99.90;;;;;;4973558;28;20476;-76
2022/07/03 02:28:02;;;;;;;37.47;15.23;;;17.10;99.90;;;;;;4970415;28;20027;-77
2022/07/03 02:30:34;;;;;;;40.90;22.30;;;17.00;99.90;;;;;;4969623;28;20089;-75
2022/07/03 02:33:05;;;;;;;39.10;16.33;;;16.90;99.90;;;;;;4973874;28;20387;-75
2022/07/03 02:35:34;;;;;;;33.10;11.50;;;16.90;99.90;;;;;;4970569;28;20054;-74
2022/07/03 02:38:21;;;;;;;40.80;19.65;;;16.80;99.90;;;;;;4973044;28;20034;-74
2022/07/03 02:41:10;;;;;;;37.33;11.98;;;16.80;99.90;;;;;;4972341;28;20129;-74
2022/07/03 02:43:58;;;;;;;33.20;9.80;;;16.70;99.90;;;;;;4972837;28;20115;-76
2022/07/03 02:46:49;;;;;;;23.92;7.13;;;16.60;99.90;;;;;;4972613;28;20026;-76
2022/07/03 02:49:39;;;;;;;25.13;6.45;;;16.50;99.90;;;;;;4953102;28;20051;-75
2022/07/03 02:52:29;;;;;;;34.85;9.13;;;16.40;99.90;;;;;;4957365;28;20027;-73
2022/07/03 02:55:18;;;;;;;38.00;8.05;;;16.20;99.90;;;;;;4968915;28;20041;-75
2022/07/03 02:57:47;;;;;;;29.67;10.60;;;16.10;99.90;;;;;;4967009;28;20027;-76
2022/07/03 03:00:14;;;;;;;41.03;18.48;;;16.00;99.90;;;;;;4970823;28;20029;-73
2022/07/03 03:02:50;;;;;;;31.65;9.50;;;15.90;99.90;;;;;;4969455;28;20031;-76
2022/07/03 03:05:37;;;;;;;42.10;9.48;;;15.90;99.90;;;;;;4976639;28;20030;-77
2022/07/03 03:08:32;;;;;;;21.55;6.90;;;15.80;99.90;;;;;;4970003;28;20033;-75
2022/07/03 03:11:07;;;;;;;35.55;10.38;;;15.80;99.90;;;;;;4959314;28;20026;-74
2022/07/03 03:13:36;;;;;;;39.90;6.85;;;15.70;99.90;;;;;;4973842;28;20053;-74
2022/07/03 03:16:09;;;;;;;41.83;7.05;;;15.70;99.90;;;;;;4974067;28;20018;-76
2022/07/03 03:18:38;;;;;;;39.53;6.40;;;15.70;99.90;;;;;;4973953;28;20117;-74
2022/07/03 03:21:10;;;;;;;44.60;7.68;;;15.70;99.90;;;;;;4976734;28;20019;-76
2022/07/03 03:23:52;;;;;;;46.78;9.73;;;15.60;99.90;;;;;;4973767;28;20019;-74
2022/07/03 03:26:25;;;;;;;44.38;11.60;;;15.50;99.90;;;;;;4971862;28;20110;-74
2022/07/03 03:28:54;;;;;;;48.55;7.40;;;15.50;99.90;;;;;;4973007;28;20440;-72
2022/07/03 03:31:22;;;;;;;42.13;8.35;;;15.40;99.90;;;;;;4969596;28;20030;-73
2022/07/03 03:33:53;;;;;;;53.05;11.82;;;15.40;99.90;;;;;;4974582;28;20085;-72
2022/07/03 03:36:21;;;;;;;47.08;9.95;;;15.50;99.90;;;;;;4970389;28;20678;-76
2022/07/03 03:38:49;;;;;;;48.05;9.57;;;15.50;99.90;;;;;;4974382;28;20047;-75
2022/07/03 03:41:18;;;;;;;42.08;10.63;;;15.50;99.90;;;;;;4973376;28;20058;-81
2022/07/03 03:43:49;;;;;;;41.17;10.15;;;15.50;99.90;;;;;;4972934;28;20041;-76
2022/07/03 03:46:17;;;;;;;43.92;9.43;;;15.40;99.90;;;;;;4971637;28;20034;-74
2022/07/03 03:48:44;;;;;;;35.15;7.78;;;15.40;99.90;;;;;;4972395;28;20027;-74
2022/07/03 03:51:13;;;;;;;46.33;12.30;;;15.40;99.90;;;;;;4970297;28;20034;-74
2022/07/03 03:53:41;;;;;;;39.13;11.65;;;15.40;99.90;;;;;;4965563;28;20034;-76
2022/07/03 03:56:10;;;;;;;54.40;14.10;;;15.40;99.90;;;;;;4973613;28;20472;-76
2022/07/03 03:58:39;;;;;;;41.33;12.73;;;15.40;99.90;;;;;;4967419;28;20039;-76
2022/07/03 04:01:09;;;;;;;37.95;9.73;;;15.40;99.90;;;;;;4970576;28;20023;-75
2022/07/03 04:03:37;;;;;;;35.92;9.45;;;15.40;99.90;;;;;;4970972;28;20035;-75
2022/07/03 04:06:05;;;;;;;50.05;9.15;;;15.40;99.90;;;;;;4959268;28;20429;-78
2022/07/03 04:08:33;;;;;;;43.40;8.18;;;15.40;99.90;;;;;;4969768;28;20022;-78
2022/07/03 04:11:01;;;;;;;47.22;9.93;;;15.30;99.90;;;;;;4973739;28;20019;-76
2022/07/03 04:13:28;;;;;;;33.67;8.25;;;15.30;99.90;;;;;;4974095;28;20033;-76
2022/07/03 04:15:56;;;;;;;43.97;8.18;;;15.30;99.90;;;;;;4973187;28;20397;-76
2022/07/03 04:18:24;;;;;;;38.90;8.65;;;15.30;99.90;;;;;;4974062;28;20479;-79
2022/07/03 04:20:52;;;;;;;41.92;6.88;;;15.20;99.90;;;;;;4974094;28;20098;-72
2022/07/03 04:23:19;;;;;;;35.15;6.43;;;15.20;99.90;;;;;;4974141;28;20069;-75
2022/07/03 04:25:47;;;;;;;32.00;6.72;;;15.20;99.90;;;;;;4975555;28;20019;-74
2022/07/03 04:28:15;;;;;;;31.88;6.28;;;15.20;99.90;;;;;;4974023;28;20384;-78
2022/07/03 04:30:42;;;;;;;40.75;18.92;;;15.20;99.90;;;;;;4973111;28;20101;-74
2022/07/03 04:33:10;;;;;;;48.25;11.10;;;15.20;99.90;;;;;;4965240;28;20031;-75
2022/07/03 04:35:38;;;;;;;33.22;7.43;;;15.20;99.90;;;;;;4969965;28;20161;-75
2022/07/03 04:38:05;;;;;;;23.20;4.55;;;15.30;99.90;;;;;;4959984;28;20066;-81
2022/07/03 04:40:33;;;;;;;34.08;8.05;;;15.20;99.90;;;;;;4967008;28;20030;-71
2022/07/03 04:43:00;;;;;;;33.25;11.30;;;15.20;99.90;;;;;;4984234;28;20126;-73
2022/07/03 04:45:28;;;;;;;23.65;8.95;;;15.20;99.90;;;;;;4974625;28;20041;-74
2022/07/03 04:47:55;;;;;;;27.83;7.88;;;15.20;99.90;;;;;;4972779;28;20101;-74
2022/07/03 04:50:23;;;;;;;38.10;8.65;;;15.30;99.90;;;;;;4968909;28;20164;-75
2022/07/03 04:52:53;;;;;;;30.80;7.25;;;15.20;99.90;;;;;;4970818;28;20030;-73
2022/07/03 04:55:24;;;;;;;38.38;15.70;;;15.10;99.90;;;;;;4967466;28;20074;-75
2022/07/03 04:57:52;;;;;;;33.00;8.13;;;15.20;99.90;;;;;;4969880;28;20022;-74
2022/07/03 05:00:20;;;;;;;23.02;8.68;;;15.10;99.90;;;;;;4965292;28;20033;-77
2022/07/03 05:02:47;;;;;;;23.40;5.60;;;15.10;99.90;;;;;;4969192;28;20031;-75
2022/07/03 05:05:14;;;;;;;28.40;5.38;;;15.00;99.90;;;;;;4969801;28;20029;-75
2022/07/03 05:07:42;;;;;;;35.30;7.30;;;15.10;99.90;;;;;;4967807;28;20059;-74
2022/07/03 05:10:09;;;;;;;23.77;6.20;;;15.00;99.90;;;;;;4968240;28;20078;-75
2022/07/03 05:12:37;;;;;;;37.70;14.25;;;15.10;99.90;;;;;;4968574;28;20035;-73
2022/07/03 05:15:04;;;;;;;26.30;7.18;;;15.10;99.90;;;;;;4969907;28;20381;-74
2022/07/03 05:17:34;;;;;;;43.40;15.32;;;15.10;99.90;;;;;;4970457;28;20023;-72
2022/07/03 05:22:49;;;;;;;34.33;13.93;;;15.20;99.90;;;;;;4968414;28;20042;-70
2022/07/03 05:25:19;;;;;;;30.10;6.35;;;15.10;99.90;;;;;;4972028;28;20023;-72
2022/07/03 05:27:50;;;;;;;24.70;8.68;;;15.20;99.90;;;;;;4967366;28;20053;-73
2022/07/03 05:30:17;;;;;;;29.75;5.88;;;15.10;99.90;;;;;;4969623;28;20133;-73
2022/07/03 05:32:45;;;;;;;32.65;7.80;;;15.20;99.90;;;;;;4965655;28;20031;-81
2022/07/03 05:35:13;;;;;;;27.33;13.50;;;15.10;99.90;;;;;;4969764;28;20023;-74
2022/07/03 05:37:40;;;;;;;25.02;11.45;;;15.10;99.90;;;;;;4969643;28;20026;-74
2022/07/03 05:40:08;;;;;;;30.52;8.38;;;15.10;99.90;;;;;;4966285;28;20049;-75
2022/07/03 05:42:36;;;;;;;33.10;7.22;;;15.00;99.90;;;;;;4963599;28;20027;-77
2022/07/03 05:45:04;;;;;;;54.05;23.75;;;15.10;99.90;;;;;;4965281;28;20392;-75
2022/07/03 05:47:31;;;;;;;35.45;14.10;;;15.00;99.90;;;;;;4963116;28;20031;-77
2022/07/03 05:49:58;;;;;;;39.97;16.42;;;15.00;99.90;;;;;;4966977;28;20110;-75
2022/07/03 05:52:26;;;;;;;19.70;5.45;;;15.00;99.90;;;;;;4966300;28;20033;-75
2022/07/03 05:54:53;;;;;;;35.38;7.60;;;15.00;99.90;;;;;;4965503;28;20113;-74
2022/07/03 05:57:21;;;;;;;32.50;6.00;;;15.00;99.90;;;;;;4964609;28;20026;-75
2022/07/03 05:59:48;;;;;;;30.88;7.15;;;15.00;99.90;;;;;;4959838;28;20093;-76
2022/07/03 06:02:17;;;;;;;32.63;5.88;;;15.00;99.90;;;;;;4968338;28;20436;-75
2022/07/03 06:04:44;;;;;;;24.75;6.10;;;15.00;99.90;;;;;;4970317;28;20027;-70
2022/07/03 06:07:11;;;;;;;37.50;8.13;;;15.10;99.90;;;;;;4966233;28;20057;-70
2022/07/03 06:09:39;;;;;;;33.40;5.68;;;15.00;99.90;;;;;;4965275;28;20015;-71
2022/07/03 06:12:06;;;;;;;36.50;7.18;;;15.10;99.90;;;;;;4964999;28;20022;-71
2022/07/03 06:14:33;;;;;;;37.13;7.68;;;15.10;99.90;;;;;;4968804;28;20772;-71
2022/07/03 06:17:01;;;;;;;42.00;18.75;;;15.00;99.90;;;;;;4966012;28;20034;-71
2022/07/03 06:19:28;;;;;;;42.72;8.02;;;15.00;99.90;;;;;;4963282;28;20034;-71
2022/07/03 06:21:56;;;;;;;65.45;27.65;;;15.10;99.90;;;;;;4964769;28;20027;-71
2022/07/03 06:24:23;;;;;;;46.42;17.65;;;15.00;99.90;;;;;;4964159;28;20039;-72
2022/07/03 06:26:50;;;;;;;48.60;19.70;;;15.10;99.90;;;;;;4965389;28;20419;-71
2022/07/03 06:29:18;;;;;;;35.97;8.75;;;15.00;99.90;;;;;;4964244;28;20037;-70
2022/07/03 06:31:45;;;;;;;41.97;17.98;;;15.00;99.90;;;;;;4964045;28;20059;-71
2022/07/03 06:34:12;;;;;;;33.05;6.07;;;14.90;99.90;;;;;;4963099;28;20082;-72
2022/07/03 06:36:40;;;;;;;26.48;7.15;;;14.80;99.90;;;;;;4964144;28;20026;-71
2022/07/03 06:39:07;;;;;;;40.08;15.05;;;14.80;99.90;;;;;;4965195;28;20082;-72
2022/07/03 06:41:34;;;;;;;35.38;7.90;;;14.80;99.90;;;;;;4963344;28;20022;-72
2022/07/03 06:44:02;;;;;;;51.13;14.63;;;14.90;99.90;;;;;;4966163;28;20494;-72
2022/07/03 06:46:29;;;;;;;36.70;13.10;;;14.90;99.90;;;;;;4963693;28;20099;-71
2022/07/03 06:48:56;;;;;;;42.38;9.63;;;14.90;99.90;;;;;;4962451;28;20031;-73
2022/07/03 06:51:24;;;;;;;35.35;7.47;;;14.90;99.90;;;;;;4958839;28;20030;-73
2022/07/03 06:53:51;;;;;;;33.90;14.55;;;14.90;99.90;;;;;;4954779;28;20019;-70
2022/07/03 06:56:19;;;;;;;41.63;10.43;;;14.90;99.90;;;;;;4956684;28;20038;-71
2022/07/03 06:58:46;;;;;;;35.53;7.60;;;14.90;99.90;;;;;;4956631;28;20219;-71
2022/07/03 07:01:14;;;;;;;37.17;7.07;;;14.80;99.90;;;;;;4954174;28;20090;-72
2022/07/03 07:03:44;;;;;;;69.82;41.97;;;14.90;99.90;;;;;;4951813;28;20480;-71
2022/07/03 07:06:11;;;;;;;33.63;9.45;;;14.90;99.90;;;;;;4955818;28;20051;-71
2022/07/03 07:08:39;;;;;;;28.23;9.18;;;14.80;99.90;;;;;;4952783;28;20383;-72
2022/07/03 07:11:06;;;;;;;32.78;7.72;;;14.80;99.90;;;;;;4956249;28;20102;-72
2022/07/03 07:13:33;;;;;;;28.58;6.65;;;14.80;99.90;;;;;;4951824;28;20023;-72
2022/07/03 07:16:01;;;;;;;27.67;10.07;;;14.80;99.90;;;;;;4963265;28;20023;-71
2022/07/03 07:18:28;;;;;;;30.50;6.47;;;14.80;99.90;;;;;;4965091;28;20030;-72
2022/07/03 07:20:55;;;;;;;22.50;8.23;;;14.80;99.90;;;;;;4963616;28;20023;-70
2022/07/03 07:23:22;;;;;;;27.48;4.72;;;14.70;99.90;;;;;;4965382;28;20106;-70
2022/07/03 07:25:50;;;;;;;28.92;5.05;;;14.70;99.90;;;;;;4964337;28;20065;-70
2022/07/03 07:28:17;;;;;;;27.05;5.57;;;14.70;99.90;;;;;;4966396;28;20180;-69
2022/07/03 07:30:45;;;;;;;25.15;4.90;;;14.70;99.90;;;;;;4964296;28;20105;-70
2022/07/03 07:33:12;;;;;;;24.48;5.05;;;14.60;99.90;;;;;;4964542;28;20034;-69
2022/07/03 07:35:40;;;;;;;33.80;5.53;;;14.60;99.90;;;;;;4964432;28;20042;-70
2022/07/03 07:38:08;;;;;;;28.38;5.72;;;14.70;99.90;;;;;;4962899;28;20030;-71
2022/07/03 07:40:37;;;;;;;25.77;5.68;;;14.60;99.90;;;;;;4964358;28;20069;-70
2022/07/03 07:43:05;;;;;;;31.08;6.68;;;14.60;99.90;;;;;;4961637;28;20037;-71
2022/07/03 07:45:32;;;;;;;25.98;6.60;;;14.70;99.90;;;;;;4965617;28;20030;-72
2022/07/03 07:47:59;;;;;;;23.73;5.63;;;14.70;99.90;;;;;;4964151;28;20019;-71
2022/07/03 07:50:27;;;;;;;26.40;5.32;;;14.70;99.90;;;;;;4967711;28;20031;-71
2022/07/03 07:52:54;;;;;;;26.48;5.28;;;14.70;99.90;;;;;;4966280;28;20022;-74
2022/07/03 07:55:25;;;;;;;26.90;5.45;;;14.70;99.90;;;;;;4971071;28;20042;-74
2022/07/03 07:57:53;;;;;;;18.85;4.72;;;14.70;99.90;;;;;;4965746;28;20030;-75
2022/07/03 08:00:24;;;;;;;24.70;7.57;;;14.80;99.90;;;;;;4968376;28;20030;-74
2022/07/03 08:05:36;;;;;;;26.73;5.63;;;14.80;99.90;;;;;;4968188;28;20037;-72
2022/07/03 08:08:04;;;;;;;24.75;4.80;;;14.80;99.90;;;;;;4965647;28;20031;-75
2022/07/03 08:10:44;;;;;;;32.72;6.88;;;14.80;99.90;;;;;;4967511;28;20019;-72
2022/07/03 08:13:13;;;;;;;34.30;6.38;;;14.80;99.90;;;;;;4965659;28;20031;-72
2022/07/03 08:15:42;;;;;;;21.27;4.50;;;14.70;99.90;;;;;;4967169;28;20086;-70
2022/07/03 08:18:09;;;;;;;25.52;6.15;;;14.60;99.90;;;;;;4965731;28;20299;-72
2022/07/03 08:20:37;;;;;;;21.48;4.78;;;14.50;99.90;;;;;;4966562;28;20039;-72
2022/07/03 08:23:06;;;;;;;30.83;5.82;;;14.50;99.90;;;;;;4962542;28;20085;-71
2022/07/03 08:25:33;;;;;;;23.73;5.50;;;14.40;99.90;;;;;;4964879;28;20027;-71
2022/07/03 08:28:00;;;;;;;26.33;4.78;;;14.50;99.90;;;;;;4963715;28;20022;-72
2022/07/03 08:30:29;;;;;;;29.98;5.60;;;14.50;99.90;;;;;;4964933;28;20070;-73
2022/07/03 08:32:58;;;;;;;22.33;5.13;;;14.50;99.90;;;;;;4963885;28;20380;-73
2022/07/03 08:35:26;;;;;;;26.83;5.60;;;14.50;99.90;;;;;;4965453;28;20023;-74
2022/07/03 08:37:54;;;;;;;33.17;8.25;;;14.50;99.90;;;;;;4965653;28;20070;-72
2022/07/03 08:40:22;;;;;;;28.98;5.90;;;14.50;99.90;;;;;;4966124;28;20035;-71
2022/07/03 08:42:54;;;;;;;33.22;6.35;;;14.60;99.90;;;;;;4966504;28;20502;-73
2022/07/03 08:45:23;;;;;;;20.17;4.70;;;14.60;99.90;;;;;;4966085;28;20050;-72
2022/07/03 08:47:54;;;;;;;17.40;4.95;;;14.50;99.90;;;;;;4966482;28;20027;-72
2022/07/03 08:50:22;;;;;;;21.00;5.28;;;14.30;99.90;;;;;;4965430;28;20058;-71
2022/07/03 08:52:49;;;;;;;20.70;4.22;;;14.30;99.90;;;;;;4964439;28;20041;-72
2022/07/03 08:55:19;;;;;;;23.63;5.18;;;14.20;99.90;;;;;;4963949;28;20816;-71
2022/07/03 08:57:49;;;;;;;21.45;4.63;;;14.30;99.90;;;;;;4966403;28;20118;-72
2022/07/03 09:00:19;;;;;;;28.45;6.35;;;14.20;99.90;;;;;;4962957;28;20077;-72
2022/07/03 09:02:49;;;;;;;27.75;5.50;;;14.30;99.90;;;;;;4965208;28;20488;-72
2022/07/03 09:05:17;;;;;;;36.22;5.57;;;14.30;99.90;;;;;;4964417;28;20109;-72
2022/07/03 09:07:46;;;;;;;32.30;5.90;;;14.40;99.90;;;;;;4966407;28;20491;-73
2022/07/03 09:10:16;;;;;;;34.63;5.38;;;14.40;99.90;;;;;;4964407;28;20037;-71
2022/07/03 09:12:48;;;;;;;37.60;8.20;;;14.50;99.90;;;;;;4963925;28;20031;-72
2022/07/03 09:15:15;;;;;;;26.65;6.90;;;14.50;99.90;;;;;;4964693;28;20087;-73
2022/07/03 09:17:58;;;;;;;30.75;6.22;;;14.50;99.90;;;;;;4961105;28;20066;-71
2022/07/03 09:20:35;;;;;;;;;;;14.50;99.90;;;;;;4958596;28;20031;-72
2022/07/03 09:23:17;;;;;;;30.35;6.47;;;14.60;99.90;;;;;;4964537;28;20005;-72
2022/07/03 09:25:54;;;;;;;28.33;5.57;;;14.60;99.90;;;;;;4946407;28;20448;-72
2022/07/03 09:28:23;;;;;;;27.90;5.82;;;14.60;99.90;;;;;;4946229;28;20046;-73
2022/07/03 09:30:59;;;;;;;29.15;5.97;;;14.60;99.90;;;;;;4972908;28;20042;-73
2022/07/03 09:33:27;;;;;;;31.05;5.20;;;14.70;99.90;;;;;;4947524;28;20030;-72
2022/07/03 09:35:55;;;;;;;31.60;6.38;;;14.70;99.90;;;;;;4966696;28;20034;-73
2022/07/03 09:38:23;;;;;;;27.75;5.82;;;14.70;99.90;;;;;;4965312;28;20038;-72
2022/07/03 09:40:57;;;;;;;32.17;5.72;;;14.70;99.90;;;;;;4965799;28;20030;-72
2022/07/03 09:43:31;;;;;;;36.58;7.65;;;14.80;99.90;;;;;;4963409;28;20027;-72
2022/07/03 09:46:00;;;;;;;30.33;5.90;;;14.70;99.90;;;;;;4966794;28;20027;-71
2022/07/03 09:48:33;;;;;;;38.33;6.88;;;14.80;99.90;;;;;;4965875;28;20121;-72
2022/07/03 09:51:20;;;;;;;35.70;7.35;;;14.80;99.90;;;;;;4966721;28;20026;-72
2022/07/03 09:53:59;;;;;;;27.88;5.07;;;14.80;99.90;;;;;;4952833;28;20384;-71
2022/07/03 09:56:36;;;;;;;20.55;4.60;;;14.90;99.90;;;;;;4963677;28;20113;-72
2022/07/03 09:59:12;;;;;;;20.98;4.20;;;14.80;99.90;;;;;;4967236;28;20495;-70
2022/07/03 10:01:44;;;;;;;27.63;4.90;;;14.80;99.90;;;;;;4964963;28;20441;-71
2022/07/03 10:04:11;;;;;;;;;;;14.80;99.90;;;;;;4966156;28;20037;-72
2022/07/03 10:06:58;;;;;;;27.05;5.10;;;14.80;99.90;;;;;;4966721;28;19913;-71
2022/07/03 10:09:27;;;;;;;28.13;4.75;;;14.70;99.90;;;;;;4965538;28;20716;-70
2022/07/03 10:11:55;;;;;;;29.83;5.03;;;14.60;99.90;;;;;;4965254;28;20490;-71
2022/07/03 10:14:25;;;;;;;27.40;4.43;;;14.60;99.90;;;;;;4965881;28;20117;-71
2022/07/03 10:16:55;;;;;;;24.10;4.72;;;14.60;99.90;;;;;;4967064;28;20023;-72
2022/07/03 10:19:26;;;;;;;25.15;4.93;;;14.60;99.90;;;;;;4965241;28;20031;-71
2022/07/03 10:21:58;;;;;;;29.23;6.45;;;14.60;99.90;;;;;;4966460;28;20468;-72
2022/07/03 10:24:30;;;;;;;29.00;5.82;;;14.60;99.90;;;;;;4965501;28;20090;-71
2022/07/03 10:26:59;;;;;;;35.08;8.20;;;14.70;99.90;;;;;;4966284;28;20476;-72
2022/07/03 10:29:28;;;;;;;33.83;7.25;;;14.60;99.90;;;;;;4964514;28;20034;-73
2022/07/03 10:31:56;;;;;;;30.75;7.93;;;14.70;99.90;;;;;;4966139;28;20038;-71
2022/07/03 10:34:28;;;;;;;37.47;7.30;;;14.70;99.90;;;;;;4965366;28;20065;-72
2022/07/03 10:37:00;;;;;;;35.88;6.47;;;14.70;99.90;;;;;;4966842;28;20492;-72
2022/07/03 10:39:27;;;;;;;;;;;14.70;99.90;;;;;;4965475;28;20039;-72
2022/07/03 10:45:04;;;;;;;38.17;6.28;;;14.70;99.90;;;;;;4964341;28;20089;-71
2022/07/03 10:47:51;;;;;;;36.65;6.50;;;14.70;99.90;;;;;;4965138;28;20027;-71
2022/07/03 10:50:18;;;;;;;34.65;7.13;;;14.70;99.90;;;;;;4965197;28;20061;-73
2022/07/03 10:52:46;;;;;;;27.23;7.60;;;14.70;99.90;;;;;;4964935;28;20070;-72
2022/07/03 10:55:15;;;;;;;31.45;5.38;;;14.70;99.90;;;;;;4966486;28;20932;-72
2022/07/03 10:57:44;;;;;;;32.42;7.55;;;14.70;99.90;;;;;;4964897;28;20035;-73
2022/07/03 11:00:15;;;;;;;28.50;5.68;;;14.70;99.90;;;;;;4965259;28;20265;-70
2022/07/03 11:02:51;;;;;;;31.13;4.90;;;14.70;99.90;;;;;;4959528;28;20635;-71
2022/07/03 11:05:23;;;;;;;33.63;7.75;;;14.80;99.90;;;;;;4962689;28;20046;-72
2022/07/03 11:07:51;;;;;;;24.70;5.70;;;14.70;99.90;;;;;;4965683;28;20054;-71
2022/07/03 11:10:18;;;;;;;36.30;6.38;;;14.70;99.90;;;;;;4963971;28;20027;-72
2022/07/03 11:13:06;;;;;;;31.63;6.95;;;14.70;99.90;;;;;;4964828;28;20509;-72
2022/07/03 11:15:55;;;;;;;35.63;5.97;;;14.60;99.90;;;;;;4961742;28;20038;-72
2022/07/03 11:18:29;;;;;;;25.45;4.63;;;14.70;99.90;;;;;;4947822;28;20704;-72
2022/07/03 11:21:03;;;;;;;30.30;5.93;;;14.70;99.90;;;;;;4966079;28;20114;-72
2022/07/03 11:23:39;;;;;;;35.75;7.72;;;14.60;99.90;;;;;;4964338;28;20055;-72
2022/07/03 11:26:09;;;;;;;40.10;7.88;;;14.60;99.90;;;;;;4969152;28;20030;-72
2022/07/03 11:28:37;;;;;;;35.58;6.30;;;14.60;99.90;;;;;;4968326;28;20023;-73
2022/07/03 11:33:55;;;;;;;40.72;7.13;;;14.70;99.90;;;;;;4962445;28;20051;-73
2022/07/03 11:36:25;;;;;;;38.58;6.80;;;14.70;99.90;;;;;;4968789;28;20114;-72
2022/07/03 11:38:58;;;;;;;51.05;8.65;;;14.70;99.90;;;;;;4967605;28;20046;-71
2022/07/03 11:41:31;;;;;;;36.47;6.38;;;14.70;99.90;;;;;;4967229;28;20464;-73
2022/07/03 11:43:59;;;;;;;;;;;14.70;99.90;;;;;;4969715;28;20105;-72
2022/07/03 11:46:32;;;;;;;38.13;8.30;;;14.70;99.90;;;;;;4968563;28;19906;-73
2022/07/03 11:49:12;;;;;;;37.30;5.93;;;14.70;99.90;;;;;;4967995;28;20125;-72
2022/07/03 11:51:43;;;;;;;44.88;7.50;;;14.70;99.90;;;;;;4957937;28;20022;-74
2022/07/03 11:54:11;;;;;;;38.88;7.25;;;14.80;99.90;;;;;;4969461;28;20023;-74
2022/07/03 11:56:41;;;;;;;38.65;8.10;;;14.80;99.90;;;;;;4968104;28;20113;-74
2022/07/03 11:59:09;;;;;;;35.95;7.78;;;14.80;99.90;;;;;;4969110;28;20089;-73
2022/07/03 12:01:39;;;;;;;33.20;7.25;;;14.80;99.90;;;;;;4963584;28;20106;-72
2022/07/03 12:04:17;;;;;;;44.28;9.10;;;14.80;99.90;;;;;;4952026;28;20027;-71
2022/07/03 12:06:53;;;;;;;29.25;4.88;;;14.80;99.90;;;;;;4958184;28;20027;-72
2022/07/03 12:09:22;;;;;;;34.95;6.93;;;14.90;99.90;;;;;;4958966;28;20041;-72
2022/07/03 12:11:53;;;;;;;30.17;5.15;;;14.90;99.90;;;;;;4957366;28;20030;-73
2022/07/03 12:14:44;;;;;;;30.73;5.55;;;15.00;99.90;;;;;;4957938;28;20024;-73
2022/07/03 12:17:12;;;;;;;24.52;5.50;;;15.00;99.90;;;;;;4961400;28;20626;-74
2022/07/03 12:19:46;;;;;;;27.65;6.50;;;15.00;99.90;;;;;;4955644;28;20429;-72
2022/07/03 12:22:34;;;;;;;36.15;7.85;;;15.10;99.90;;;;;;4958712;28;20487;-72
2022/07/03 12:25:12;;;;;;;30.15;7.50;;;15.10;99.90;;;;;;4961134;28;20723;-73
2022/07/03 12:27:43;;;;;;;26.45;5.18;;;15.10;99.90;;;;;;4966975;28;20452;-73
2022/07/03 12:30:27;;;;;;;28.85;4.93;;;15.10;99.90;;;;;;4953361;28;20415;-73
2022/07/03 12:32:56;;;;;;;34.35;6.70;;;15.10;99.90;;;;;;4967043;28;20030;-72
2022/07/03 12:35:27;;;;;;;31.85;6.18;;;15.10;99.90;;;;;;4967233;28;20062;-73
2022/07/03 12:37:55;;;;;;;30.50;5.40;;;15.10;99.90;;;;;;4956926;28;20024;-73
2022/07/03 12:40:22;;;;;;;40.95;7.40;;;15.20;99.90;;;;;;4955899;28;20499;-71
2022/07/03 12:42:55;;;;;;;25.77;5.30;;;15.10;99.90;;;;;;4957067;28;20019;-71
2022/07/03 12:45:23;;;;;;;;;;;15.10;99.90;;;;;;4959281;28;20023;-72
2022/07/03 12:48:05;;;;;;;23.08;5.15;;;15.10;99.90;;;;;;4959349;28;19918;-72
2022/07/03 12:50:51;;;;;;;25.17;4.10;;;15.10;99.90;;;;;;4957468;28;20058;-72
2022/07/03 12:53:32;;;;;;;20.55;4.70;;;15.10;99.90;;;;;;4958448;28;20019;-71
2022/07/03 12:56:03;;;;;;;30.40;5.90;;;15.10;99.90;;;;;;4954670;28;20089;-71
2022/07/03 13:01:29;;;;;;;23.75;4.53;;;15.10;99.90;;;;;;4959208;28;20070;-72
2022/07/03 13:03:58;;;;;;;30.25;6.10;;;15.20;99.90;;;;;;4955813;28;20023;-71
2022/07/03 13:06:25;;;;;;;29.83;5.75;;;15.20;99.90;;;;;;4957918;28;20026;-72
2022/07/03 13:08:59;;;;;;;24.30;4.57;;;15.30;99.90;;;;;;4956827;28;20384;-71
2022/07/03 13:11:29;;;;;;;25.42;4.25;;;15.30;99.90;;;;;;4957105;28;20030;-70
2022/07/03 13:14:18;;;;;;;25.02;5.20;;;15.30;99.90;;;;;;4953818;28;20365;-73
2022/07/03 13:16:54;;;;;;;28.15;5.07;;;15.30;99.90;;;;;;4955763;28;20084;-72